sensor_id;sensor_type;location;lat;lon;timestamp;P1;durP1;ratioP1;P2;durP2;ratioP2
75516;SDS011;64097;52.548;13.406;2023-02-28T06:03:30;8.60;;;6.07;;
75516;SDS011;64097;52.548;13.406;2023-02-28T06:05:55;8.07;;;6.10;;
75516;SDS011;64097;52.548;13.406;2023-02-28T06:08:21;10.00;;;6.47;;
75516;SDS011;64097;52.548;13.406;2023-02-28T06:10:47;11.63;;;6.65;;
75516;SDS011;64097;52.548;13.406;2023-02-28T06:13:13;8.80;;;6.03;;
75516;SDS011;64097;52.548;13.406;2023-02-28T06:15:39;10.45;;;6.22;;
75516;SDS011;64097;52.548;13.406;2023-02-28T06:18:05;8.43;;;5.70;;
75516;SDS011;64097;52.548;13.406;2023-02-28T06:20:31;9.40;;;6.07;;
75516;SDS011;64097;52.548;13.406;2023-02-28T06:22:57;10.07;;;5.97;;
75516;SDS011;64097;52.548;13.406;2023-02-28T06:25:26;9.05;;;6.53;;
75516;SDS011;64097;52.548;13.406;2023-02-28T06:27:52;9.32;;;6.03;;
75516;SDS011;64097;52.548;13.406;2023-02-28T06:30:18;10.15;;;6.47;;
75516;SDS011;64097;52.548;13.406;2023-02-28T06:32:48;10.25;;;6.28;;
75516;SDS011;64097;52.548;13.406;2023-02-28T06:35:14;10.00;;;6.20;;
75516;SDS011;64097;52.548;13.406;2023-02-28T06:37:40;9.90;;;6.25;;
75516;SDS011;64097;52.548;13.406;2023-02-28T06:40:07;9.60;;;6.78;;
75516;SDS011;64097;52.548;13.406;2023-02-28T06:42:33;9.63;;;6.20;;
75516;SDS011;64097;52.548;13.406;2023-02-28T06:45:00;8.10;;;6.10;;
75516;SDS011;64097;52.548;13.406;2023-02-28T06:47:28;10.35;;;6.72;;
75516;SDS011;64097;52.548;13.406;2023-02-28T06:49:55;11.57;;;6.63;;
75516;SDS011;64097;52.548;13.406;2023-02-28T06:52:21;10.98;;;7.00;;
75516;SDS011;64097;52.548;13.406;2023-02-28T06:54:50;10.23;;;6.70;;
75516;SDS011;64097;52.548;13.406;2023-02-28T06:57:24;9.98;;;6.65;;
75516;SDS011;64097;52.548;13.406;2023-02-28T06:59:52;13.05;;;7.63;;
75516;SDS011;64097;52.548;13.406;2023-02-28T07:02:18;13.48;;;8.43;;
75516;SDS011;64097;52.548;13.406;2023-02-28T07:04:44;13.10;;;8.45;;
75516;SDS011;64097;52.548;13.406;2023-02-28T07:07:10;13.02;;;8.85;;
75516;SDS011;64097;52.548;13.406;2023-02-28T07:09:36;12.32;;;8.68;;
75516;SDS011;64097;52.548;13.406;2023-02-28T07:12:01;13.38;;;8.63;;
75516;SDS011;64097;52.548;13.406;2023-02-28T07:14:27;12.68;;;8.20;;
75516;SDS011;64097;52.548;13.406;2023-02-28T07:16:53;13.75;;;8.70;;
75516;SDS011;64097;52.548;13.406;2023-02-28T07:19:18;12.23;;;8.30;;
75516;SDS011;64097;52.548;13.406;2023-02-28T07:21:45;12.70;;;8.70;;
75516;SDS011;64097;52.548;13.406;2023-02-28T07:24:10;15.57;;;9.50;;
75516;SDS011;64097;52.548;13.406;2023-02-28T07:26:36;15.00;;;8.90;;
75516;SDS011;64097;52.548;13.406;2023-02-28T07:29:02;13.23;;;9.02;;
75516;SDS011;64097;52.548;13.406;2023-02-28T07:31:28;12.27;;;8.55;;
75516;SDS011;64097;52.548;13.406;2023-02-28T07:33:54;14.45;;;9.10;;
75516;SDS011;64097;52.548;13.406;2023-02-28T07:36:21;15.88;;;10.13;;
75516;SDS011;64097;52.548;13.406;2023-02-28T07:38:47;11.60;;;8.02;;
75516;SDS011;64097;52.548;13.406;2023-02-28T07:41:15;12.07;;;7.93;;
75516;SDS011;64097;52.548;13.406;2023-02-28T07:43:41;12.15;;;8.80;;
75516;SDS011;64097;52.548;13.406;2023-02-28T07:46:09;11.82;;;8.40;;
75516;SDS011;64097;52.548;13.406;2023-02-28T07:48:36;11.90;;;7.88;;
75516;SDS011;64097;52.548;13.406;2023-02-28T07:51:02;12.57;;;8.25;;
75516;SDS011;64097;52.548;13.406;2023-02-28T07:53:28;13.50;;;9.40;;
75516;SDS011;64097;52.548;13.406;2023-02-28T07:55:58;15.50;;;9.57;;
75516;SDS011;64097;52.548;13.406;2023-02-28T07:58:25;11.40;;;8.20;;
75516;SDS011;64097;52.548;13.406;2023-02-28T08:00:52;11.65;;;7.25;;
75516;SDS011;64097;52.548;13.406;2023-02-28T08:03:19;10.32;;;6.68;;
75516;SDS011;64097;52.548;13.406;2023-02-28T08:05:45;6.88;;;4.88;;
75516;SDS011;64097;52.548;13.406;2023-02-28T08:08:13;6.18;;;4.55;;
75516;SDS011;64097;52.548;13.406;2023-02-28T08:10:39;6.10;;;4.50;;
75516;SDS011;64097;52.548;13.406;2023-02-28T08:13:05;5.35;;;3.88;;
75516;SDS011;64097;52.548;13.406;2023-02-28T08:15:31;5.03;;;3.97;;
75516;SDS011;64097;52.548;13.406;2023-02-28T08:17:57;5.80;;;3.75;;
75516;SDS011;64097;52.548;13.406;2023-02-28T08:20:23;8.57;;;5.45;;
75516;SDS011;64097;52.548;13.406;2023-02-28T08:22:49;7.65;;;4.80;;
75516;SDS011;64097;52.548;13.406;2023-02-28T08:25:15;7.45;;;4.97;;
75516;SDS011;64097;52.548;13.406;2023-02-28T08:27:41;7.03;;;4.63;;
75516;SDS011;64097;52.548;13.406;2023-02-28T08:30:07;6.00;;;4.22;;
75516;SDS011;64097;52.548;13.406;2023-02-28T08:32:35;5.45;;;3.83;;
75516;SDS011;64097;52.548;13.406;2023-02-28T08:35:00;6.55;;;4.00;;
75516;SDS011;64097;52.548;13.406;2023-02-28T08:37:28;6.22;;;3.78;;
75516;SDS011;64097;52.548;13.406;2023-02-28T08:39:53;5.45;;;3.50;;
75516;SDS011;64097;52.548;13.406;2023-02-28T08:42:19;4.43;;;2.80;;
75516;SDS011;64097;52.548;13.406;2023-02-28T08:44:45;4.20;;;2.40;;
75516;SDS011;64097;52.548;13.406;2023-02-28T08:47:11;3.35;;;2.30;;
75516;SDS011;64097;52.548;13.406;2023-02-28T08:49:36;4.88;;;2.28;;
75516;SDS011;64097;52.548;13.406;2023-02-28T08:52:02;4.97;;;2.53;;
75516;SDS011;64097;52.548;13.406;2023-02-28T08:54:28;4.00;;;2.80;;
75516;SDS011;64097;52.548;13.406;2023-02-28T08:56:56;5.07;;;2.90;;
75516;SDS011;64097;52.548;13.406;2023-02-28T08:59:22;5.57;;;2.20;;
75516;SDS011;64097;52.548;13.406;2023-02-28T09:01:48;3.40;;;1.85;;
75516;SDS011;64097;52.548;13.406;2023-02-28T09:04:13;3.53;;;1.58;;
75516;SDS011;64097;52.548;13.406;2023-02-28T09:06:39;2.72;;;1.90;;
75516;SDS011;64097;52.548;13.406;2023-02-28T09:09:05;2.72;;;1.80;;
75516;SDS011;64097;52.548;13.406;2023-02-28T09:11:32;3.05;;;1.90;;
75516;SDS011;64097;52.548;13.406;2023-02-28T09:13:59;3.70;;;2.65;;
75516;SDS011;64097;52.548;13.406;2023-02-28T09:16:26;3.97;;;2.20;;
75516;SDS011;64097;52.548;13.406;2023-02-28T09:18:51;3.22;;;2.25;;
75516;SDS011;64097;52.548;13.406;2023-02-28T09:21:18;2.83;;;2.00;;
75516;SDS011;64097;52.548;13.406;2023-02-28T09:23:44;2.83;;;1.95;;
75516;SDS011;64097;52.548;13.406;2023-02-28T09:26:16;2.45;;;2.00;;
75516;SDS011;64097;52.548;13.406;2023-02-28T09:28:47;3.58;;;2.13;;
75516;SDS011;64097;52.548;13.406;2023-02-28T09:31:14;2.60;;;2.00;;
75516;SDS011;64097;52.548;13.406;2023-02-28T09:33:45;5.50;;;2.38;;
75516;SDS011;64097;52.548;13.406;2023-02-28T09:36:11;2.75;;;1.80;;
75516;SDS011;64097;52.548;13.406;2023-02-28T09:38:37;2.50;;;1.60;;
75516;SDS011;64097;52.548;13.406;2023-02-28T09:41:08;2.83;;;1.63;;
75516;SDS011;64097;52.548;13.406;2023-02-28T09:43:40;2.50;;;1.60;;
75516;SDS011;64097;52.548;13.406;2023-02-28T09:46:17;1.60;;;1.35;;
75516;SDS011;64097;52.548;13.406;2023-02-28T09:48:55;2.83;;;1.50;;
75516;SDS011;64097;52.548;13.406;2023-02-28T09:53:53;2.13;;;1.55;;
75516;SDS011;64097;52.548;13.406;2023-02-28T10:01:25;1.90;;;1.40;;
75516;SDS011;64097;52.548;13.406;2023-02-28T10:06:44;5.82;;;1.60;;
75516;SDS011;64097;52.548;13.406;2023-02-28T10:09:24;2.78;;;1.63;;
75516;SDS011;64097;52.548;13.406;2023-02-28T10:11:54;3.00;;;1.60;;
75516;SDS011;64097;52.548;13.406;2023-02-28T10:14:26;3.60;;;1.55;;
75516;SDS011;64097;52.548;13.406;2023-02-28T10:17:04;3.53;;;1.55;;
75516;SDS011;64097;52.548;13.406;2023-02-28T10:19:49;1.95;;;1.30;;
75516;SDS011;64097;52.548;13.406;2023-02-28T10:22:34;2.13;;;1.40;;
75516;SDS011;64097;52.548;13.406;2023-02-28T10:25:21;1.60;;;1.30;;
75516;SDS011;64097;52.548;13.406;2023-02-28T10:27:49;1.98;;;1.40;;
75516;SDS011;64097;52.548;13.406;2023-02-28T10:30:18;1.90;;;1.40;;
75516;SDS011;64097;52.548;13.406;2023-02-28T10:32:49;2.42;;;1.70;;
75516;SDS011;64097;52.548;13.406;2023-02-28T10:35:25;2.60;;;1.67;;
75516;SDS011;64097;52.548;13.406;2023-02-28T10:37:55;2.28;;;1.70;;
75516;SDS011;64097;52.548;13.406;2023-02-28T10:45:24;2.72;;;1.95;;
75516;SDS011;64097;52.548;13.406;2023-02-28T10:50:28;1.88;;;1.50;;
75516;SDS011;64097;52.548;13.406;2023-02-28T10:58:31;2.00;;;1.60;;
75516;SDS011;64097;52.548;13.406;2023-02-28T11:01:51;1.88;;;1.52;;
75516;SDS011;64097;52.548;13.406;2023-02-28T11:06:47;2.38;;;1.52;;
75516;SDS011;64097;52.548;13.406;2023-02-28T11:09:23;2.00;;;1.77;;
75516;SDS011;64097;52.548;13.406;2023-02-28T11:11:54;2.35;;;1.50;;
75516;SDS011;64097;52.548;13.406;2023-02-28T11:14:29;2.78;;;2.05;;
75516;SDS011;64097;52.548;13.406;2023-02-28T11:17:01;2.55;;;1.60;;
75516;SDS011;64097;52.548;13.406;2023-02-28T11:19:39;3.33;;;2.00;;
75516;SDS011;64097;52.548;13.406;2023-02-28T11:22:15;2.10;;;1.65;;
75516;SDS011;64097;52.548;13.406;2023-02-28T11:24:50;1.77;;;1.60;;
75516;SDS011;64097;52.548;13.406;2023-02-28T11:27:42;2.03;;;1.60;;
75516;SDS011;64097;52.548;13.406;2023-02-28T11:32:58;2.90;;;2.15;;
75516;SDS011;64097;52.548;13.406;2023-02-28T11:35:43;3.15;;;2.20;;
75516;SDS011;64097;52.548;13.406;2023-02-28T11:38:09;3.95;;;2.15;;
75516;SDS011;64097;52.548;13.406;2023-02-28T11:51:56;3.45;;;2.33;;
75516;SDS011;64097;52.548;13.406;2023-02-28T12:06:01;4.40;;;2.20;;
75516;SDS011;64097;52.548;13.406;2023-02-28T12:11:33;4.03;;;2.70;;
75516;SDS011;64097;52.548;13.406;2023-02-28T12:14:32;4.82;;;3.10;;
75516;SDS011;64097;52.548;13.406;2023-02-28T12:20:25;2.88;;;2.38;;
75516;SDS011;64097;52.548;13.406;2023-02-28T12:25:48;3.63;;;2.72;;
75516;SDS011;64097;52.548;13.406;2023-02-28T12:28:16;3.40;;;2.58;;
75516;SDS011;64097;52.548;13.406;2023-02-28T12:30:49;3.60;;;2.53;;
75516;SDS011;64097;52.548;13.406;2023-02-28T12:33:33;4.25;;;2.83;;
75516;SDS011;64097;52.548;13.406;2023-02-28T12:36:05;4.32;;;2.78;;
75516;SDS011;64097;52.548;13.406;2023-02-28T12:38:56;3.40;;;2.47;;
75516;SDS011;64097;52.548;13.406;2023-02-28T12:44:17;3.55;;;2.60;;
75516;SDS011;64097;52.548;13.406;2023-02-28T12:46:53;3.33;;;2.58;;
75516;SDS011;64097;52.548;13.406;2023-02-28T12:51:58;3.60;;;2.70;;
75516;SDS011;64097;52.548;13.406;2023-02-28T12:54:35;3.38;;;2.33;;
75516;SDS011;64097;52.548;13.406;2023-02-28T12:59:41;3.60;;;2.40;;
75516;SDS011;64097;52.548;13.406;2023-02-28T13:10:41;4.78;;;2.85;;
75516;SDS011;64097;52.548;13.406;2023-02-28T13:13:17;3.83;;;2.90;;
75516;SDS011;64097;52.548;13.406;2023-02-28T13:15:59;3.72;;;2.47;;
75516;SDS011;64097;52.548;13.406;2023-02-28T13:18:46;4.00;;;3.13;;
75516;SDS011;64097;52.548;13.406;2023-02-28T13:21:24;3.95;;;2.42;;
75516;SDS011;64097;52.548;13.406;2023-02-28T13:29:11;4.13;;;3.00;;
75516;SDS011;64097;52.548;13.406;2023-02-28T13:34:36;3.70;;;2.55;;
75516;SDS011;64097;52.548;13.406;2023-02-28T13:47:28;3.50;;;2.80;;
75516;SDS011;64097;52.548;13.406;2023-02-28T13:50:13;3.22;;;2.40;;
75516;SDS011;64097;52.548;13.406;2023-02-28T13:52:48;3.15;;;2.45;;
